sensor_id;sensor_type;location;lat;lon;timestamp;temperature;humidity
4354;DHT22;11018;51.258;6.806;2023-04-24T00:00:36;12.30;46.00
4354;DHT22;11018;51.258;6.806;2023-04-24T00:03:02;12.40;45.80
4354;DHT22;11018;51.258;6.806;2023-04-24T00:05:28;12.50;45.20
4354;DHT22;11018;51.258;6.806;2023-04-24T00:07:54;12.30;45.10
4354;DHT22;11018;51.258;6.806;2023-04-24T00:10:20;12.30;45.70
4354;DHT22;11018;51.258;6.806;2023-04-24T00:12:46;12.30;45.00
4354;DHT22;11018;51.258;6.806;2023-04-24T00:15:12;12.20;45.70
4354;DHT22;11018;51.258;6.806;2023-04-24T00:17:37;12.10;46.10
4354;DHT22;11018;51.258;6.806;2023-04-24T00:20:04;12.00;46.90
4354;DHT22;11018;51.258;6.806;2023-04-24T00:22:32;11.80;48.40
4354;DHT22;11018;51.258;6.806;2023-04-24T00:24:58;11.70;49.90
4354;DHT22;11018;51.258;6.806;2023-04-24T00:27:24;11.50;51.70
4354;DHT22;11018;51.258;6.806;2023-04-24T00:29:49;11.40;51.50
4354;DHT22;11018;51.258;6.806;2023-04-24T00:32:15;11.20;52.90
4354;DHT22;11018;51.258;6.806;2023-04-24T00:34:41;11.10;53.40
4354;DHT22;11018;51.258;6.806;2023-04-24T00:37:07;11.10;52.50
4354;DHT22;11018;51.258;6.806;2023-04-24T00:39:32;11.10;52.30
4354;DHT22;11018;51.258;6.806;2023-04-24T00:41:58;11.10;50.70
4354;DHT22;11018;51.258;6.806;2023-04-24T00:44:25;11.20;49.70
4354;DHT22;11018;51.258;6.806;2023-04-24T00:46:50;11.30;48.70
4354;DHT22;11018;51.258;6.806;2023-04-24T00:49:20;11.30;49.00
4354;DHT22;11018;51.258;6.806;2023-04-24T00:51:46;11.40;49.90
4354;DHT22;11018;51.258;6.806;2023-04-24T00:54:12;11.40;49.60
4354;DHT22;11018;51.258;6.806;2023-04-24T00:56:39;11.40;50.30
4354;DHT22;11018;51.258;6.806;2023-04-24T00:59:04;11.50;50.10
4354;DHT22;11018;51.258;6.806;2023-04-24T01:01:30;11.60;48.60
4354;DHT22;11018;51.258;6.806;2023-04-24T01:03:57;11.60;47.20
4354;DHT22;11018;51.258;6.806;2023-04-24T01:06:23;11.60;48.00
4354;DHT22;11018;51.258;6.806;2023-04-24T01:08:52;11.50;48.10
4354;DHT22;11018;51.258;6.806;2023-04-24T01:11:19;11.60;46.80
4354;DHT22;11018;51.258;6.806;2023-04-24T01:13:45;11.50;47.00
4354;DHT22;11018;51.258;6.806;2023-04-24T01:16:11;11.40;46.50
4354;DHT22;11018;51.258;6.806;2023-04-24T01:18:37;11.30;47.90
4354;DHT22;11018;51.258;6.806;2023-04-24T01:21:04;11.30;48.10
4354;DHT22;11018;51.258;6.806;2023-04-24T01:23:30;11.20;49.40
4354;DHT22;11018;51.258;6.806;2023-04-24T01:25:55;11.00;49.80
4354;DHT22;11018;51.258;6.806;2023-04-24T01:28:21;10.80;52.20
4354;DHT22;11018;51.258;6.806;2023-04-24T01:30:47;10.70;54.30
4354;DHT22;11018;51.258;6.806;2023-04-24T01:33:13;10.60;55.10
4354;DHT22;11018;51.258;6.806;2023-04-24T01:35:39;10.50;55.50
4354;DHT22;11018;51.258;6.806;2023-04-24T01:38:05;10.40;55.70
4354;DHT22;11018;51.258;6.806;2023-04-24T01:40:31;10.30;57.10
4354;DHT22;11018;51.258;6.806;2023-04-24T01:42:58;10.20;58.90
4354;DHT22;11018;51.258;6.806;2023-04-24T01:45:24;10.10;59.30
4354;DHT22;11018;51.258;6.806;2023-04-24T01:47:50;10.00;60.70
4354;DHT22;11018;51.258;6.806;2023-04-24T01:50:16;10.00;60.90
4354;DHT22;11018;51.258;6.806;2023-04-24T01:52:42;9.90;62.60
4354;DHT22;11018;51.258;6.806;2023-04-24T01:55:08;10.00;61.80
4354;DHT22;11018;51.258;6.806;2023-04-24T01:57:34;10.00;61.40
4354;DHT22;11018;51.258;6.806;2023-04-24T02:00:00;10.10;60.30
4354;DHT22;11018;51.258;6.806;2023-04-24T02:02:25;10.20;60.40
4354;DHT22;11018;51.258;6.806;2023-04-24T02:04:56;10.30;59.60
4354;DHT22;11018;51.258;6.806;2023-04-24T02:07:22;10.30;59.40
4354;DHT22;11018;51.258;6.806;2023-04-24T02:09:47;10.40;59.90
4354;DHT22;11018;51.258;6.806;2023-04-24T02:12:13;10.40;58.40
4354;DHT22;11018;51.258;6.806;2023-04-24T02:14:39;10.40;58.30
4354;DHT22;11018;51.258;6.806;2023-04-24T02:17:05;10.50;58.00
4354;DHT22;11018;51.258;6.806;2023-04-24T02:19:31;10.50;58.30
4354;DHT22;11018;51.258;6.806;2023-04-24T02:21:56;10.50;57.90
4354;DHT22;11018;51.258;6.806;2023-04-24T02:24:22;10.50;58.80
4354;DHT22;11018;51.258;6.806;2023-04-24T02:26:47;10.40;59.50
4354;DHT22;11018;51.258;6.806;2023-04-24T02:29:13;10.40;60.10
4354;DHT22;11018;51.258;6.806;2023-04-24T02:31:38;10.40;59.50
4354;DHT22;11018;51.258;6.806;2023-04-24T02:34:04;10.40;59.70
4354;DHT22;11018;51.258;6.806;2023-04-24T02:36:29;10.50;59.00
4354;DHT22;11018;51.258;6.806;2023-04-24T02:38:55;10.60;58.30
4354;DHT22;11018;51.258;6.806;2023-04-24T02:41:21;10.60;58.10
4354;DHT22;11018;51.258;6.806;2023-04-24T02:43:46;10.70;58.10
4354;DHT22;11018;51.258;6.806;2023-04-24T02:46:12;10.70;57.80
4354;DHT22;11018;51.258;6.806;2023-04-24T02:48:37;10.70;57.50
4354;DHT22;11018;51.258;6.806;2023-04-24T02:51:03;10.70;57.30
4354;DHT22;11018;51.258;6.806;2023-04-24T02:53:29;10.80;56.10
4354;DHT22;11018;51.258;6.806;2023-04-24T02:55:58;10.80;56.40
4354;DHT22;11018;51.258;6.806;2023-04-24T02:58:23;10.80;56.60
4354;DHT22;11018;51.258;6.806;2023-04-24T03:00:53;10.80;56.80
4354;DHT22;11018;51.258;6.806;2023-04-24T03:03:19;10.80;56.60
4354;DHT22;11018;51.258;6.806;2023-04-24T03:05:45;10.80;57.10
4354;DHT22;11018;51.258;6.806;2023-04-24T03:08:11;10.80;56.80
4354;DHT22;11018;51.258;6.806;2023-04-24T03:10:36;10.80;56.20
4354;DHT22;11018;51.258;6.806;2023-04-24T03:13:02;10.80;56.20
4354;DHT22;11018;51.258;6.806;2023-04-24T03:15:27;10.80;57.00
4354;DHT22;11018;51.258;6.806;2023-04-24T03:17:53;10.80;57.00
4354;DHT22;11018;51.258;6.806;2023-04-24T03:20:18;10.90;56.40
4354;DHT22;11018;51.258;6.806;2023-04-24T03:22:44;10.80;56.30
4354;DHT22;11018;51.258;6.806;2023-04-24T03:25:10;10.90;55.90
4354;DHT22;11018;51.258;6.806;2023-04-24T03:27:35;10.90;56.30
4354;DHT22;11018;51.258;6.806;2023-04-24T03:30:01;10.90;54.90
4354;DHT22;11018;51.258;6.806;2023-04-24T03:32:27;10.90;55.10
4354;DHT22;11018;51.258;6.806;2023-04-24T03:34:52;10.90;55.50
4354;DHT22;11018;51.258;6.806;2023-04-24T03:37:18;10.80;55.90
4354;DHT22;11018;51.258;6.806;2023-04-24T03:39:44;10.90;54.00
4354;DHT22;11018;51.258;6.806;2023-04-24T03:42:09;10.90;54.00
4354;DHT22;11018;51.258;6.806;2023-04-24T03:44:36;10.90;54.20
4354;DHT22;11018;51.258;6.806;2023-04-24T03:47:01;10.90;54.60
4354;DHT22;11018;51.258;6.806;2023-04-24T03:49:27;10.90;54.90
4354;DHT22;11018;51.258;6.806;2023-04-24T03:51:53;10.90;54.20
4354;DHT22;11018;51.258;6.806;2023-04-24T03:54:19;10.90;54.40
4354;DHT22;11018;51.258;6.806;2023-04-24T03:56:45;10.90;54.20
4354;DHT22;11018;51.258;6.806;2023-04-24T03:59:11;10.90;54.20
4354;DHT22;11018;51.258;6.806;2023-04-24T04:01:37;10.90;53.80
4354;DHT22;11018;51.258;6.806;2023-04-24T04:04:08;10.90;54.10
4354;DHT22;11018;51.258;6.806;2023-04-24T04:06:34;10.90;53.60
4354;DHT22;11018;51.258;6.806;2023-04-24T04:09:01;11.00;52.80
4354;DHT22;11018;51.258;6.806;2023-04-24T04:11:27;11.00;53.10
4354;DHT22;11018;51.258;6.806;2023-04-24T04:13:52;10.90;52.70
4354;DHT22;11018;51.258;6.806;2023-04-24T04:16:18;10.90;52.90
4354;DHT22;11018;51.258;6.806;2023-04-24T04:18:44;10.90;53.80
4354;DHT22;11018;51.258;6.806;2023-04-24T04:21:10;10.90;54.30
4354;DHT22;11018;51.258;6.806;2023-04-24T04:23:35;10.90;53.40
4354;DHT22;11018;51.258;6.806;2023-04-24T04:26:02;10.90;54.20
4354;DHT22;11018;51.258;6.806;2023-04-24T04:28:28;10.80;54.20
4354;DHT22;11018;51.258;6.806;2023-04-24T04:30:56;10.90;54.10
4354;DHT22;11018;51.258;6.806;2023-04-24T04:33:23;10.80;54.40
4354;DHT22;11018;51.258;6.806;2023-04-24T04:35:49;10.90;54.40
4354;DHT22;11018;51.258;6.806;2023-04-24T04:38:15;10.80;54.10
4354;DHT22;11018;51.258;6.806;2023-04-24T04:40:42;10.80;54.00
4354;DHT22;11018;51.258;6.806;2023-04-24T04:43:08;10.70;55.80
4354;DHT22;11018;51.258;6.806;2023-04-24T04:45:33;10.70;55.40
4354;DHT22;11018;51.258;6.806;2023-04-24T04:48:00;10.80;54.10
4354;DHT22;11018;51.258;6.806;2023-04-24T04:50:27;10.80;53.90
4354;DHT22;11018;51.258;6.806;2023-04-24T04:52:52;10.80;54.00
4354;DHT22;11018;51.258;6.806;2023-04-24T04:55:18;10.80;55.00
4354;DHT22;11018;51.258;6.806;2023-04-24T04:57:45;10.80;55.70
4354;DHT22;11018;51.258;6.806;2023-04-24T05:00:12;10.70;58.50
4354;DHT22;11018;51.258;6.806;2023-04-24T05:02:38;10.60;62.10
4354;DHT22;11018;51.258;6.806;2023-04-24T05:05:05;10.60;65.20
4354;DHT22;11018;51.258;6.806;2023-04-24T05:07:31;10.50;68.40
4354;DHT22;11018;51.258;6.806;2023-04-24T05:09:56;10.40;71.60
4354;DHT22;11018;51.258;6.806;2023-04-24T05:12:22;10.20;74.10
4354;DHT22;11018;51.258;6.806;2023-04-24T05:14:47;10.30;72.60
4354;DHT22;11018;51.258;6.806;2023-04-24T05:17:13;10.20;74.90
4354;DHT22;11018;51.258;6.806;2023-04-24T05:19:39;10.30;72.30
4354;DHT22;11018;51.258;6.806;2023-04-24T05:22:04;10.30;70.30
4354;DHT22;11018;51.258;6.806;2023-04-24T05:24:33;10.40;65.70
4354;DHT22;11018;51.258;6.806;2023-04-24T05:26:59;10.40;64.40
4354;DHT22;11018;51.258;6.806;2023-04-24T05:29:25;10.40;65.60
4354;DHT22;11018;51.258;6.806;2023-04-24T05:31:51;10.40;66.60
4354;DHT22;11018;51.258;6.806;2023-04-24T05:34:17;10.40;69.60
4354;DHT22;11018;51.258;6.806;2023-04-24T05:36:43;10.40;70.20
4354;DHT22;11018;51.258;6.806;2023-04-24T05:39:09;10.30;72.30
4354;DHT22;11018;51.258;6.806;2023-04-24T05:41:35;10.30;71.70
4354;DHT22;11018;51.258;6.806;2023-04-24T05:44:00;10.20;74.00
4354;DHT22;11018;51.258;6.806;2023-04-24T05:46:26;10.20;74.20
4354;DHT22;11018;51.258;6.806;2023-04-24T05:48:51;10.30;72.70
4354;DHT22;11018;51.258;6.806;2023-04-24T05:51:17;10.30;69.90
4354;DHT22;11018;51.258;6.806;2023-04-24T05:53:42;10.30;72.10
4354;DHT22;11018;51.258;6.806;2023-04-24T05:56:08;10.30;69.20
4354;DHT22;11018;51.258;6.806;2023-04-24T05:58:34;10.40;71.00
4354;DHT22;11018;51.258;6.806;2023-04-24T06:00:59;10.40;69.80
4354;DHT22;11018;51.258;6.806;2023-04-24T06:03:26;10.40;70.50
4354;DHT22;11018;51.258;6.806;2023-04-24T06:05:53;10.40;70.30
4354;DHT22;11018;51.258;6.806;2023-04-24T06:08:19;10.40;72.70
4354;DHT22;11018;51.258;6.806;2023-04-24T06:10:44;10.50;74.10
4354;DHT22;11018;51.258;6.806;2023-04-24T06:13:10;10.60;71.80
4354;DHT22;11018;51.258;6.806;2023-04-24T06:15:36;10.50;71.20
4354;DHT22;11018;51.258;6.806;2023-04-24T06:18:03;10.70;69.10
4354;DHT22;11018;51.258;6.806;2023-04-24T06:20:28;10.60;70.90
4354;DHT22;11018;51.258;6.806;2023-04-24T06:22:54;10.60;70.90
4354;DHT22;11018;51.258;6.806;2023-04-24T06:25:20;10.60;70.60
4354;DHT22;11018;51.258;6.806;2023-04-24T06:27:45;10.60;71.00
4354;DHT22;11018;51.258;6.806;2023-04-24T06:30:11;10.70;70.50
4354;DHT22;11018;51.258;6.806;2023-04-24T06:32:37;10.70;68.20
4354;DHT22;11018;51.258;6.806;2023-04-24T06:35:03;10.70;67.20
4354;DHT22;11018;51.258;6.806;2023-04-24T06:37:29;10.60;69.70
4354;DHT22;11018;51.258;6.806;2023-04-24T06:39:55;10.50;71.30
4354;DHT22;11018;51.258;6.806;2023-04-24T06:42:20;10.40;71.30
4354;DHT22;11018;51.258;6.806;2023-04-24T06:44:47;10.40;73.10
4354;DHT22;11018;51.258;6.806;2023-04-24T06:47:13;10.60;71.80
4354;DHT22;11018;51.258;6.806;2023-04-24T06:49:39;10.50;70.10
4354;DHT22;11018;51.258;6.806;2023-04-24T06:52:05;10.50;71.40
4354;DHT22;11018;51.258;6.806;2023-04-24T06:54:32;10.40;74.30
4354;DHT22;11018;51.258;6.806;2023-04-24T06:56:58;10.40;73.30
4354;DHT22;11018;51.258;6.806;2023-04-24T06:59:26;10.40;79.20
4354;DHT22;11018;51.258;6.806;2023-04-24T07:01:51;10.20;79.80
4354;DHT22;11018;51.258;6.806;2023-04-24T07:04:18;10.20;80.40
4354;DHT22;11018;51.258;6.806;2023-04-24T07:06:45;10.30;78.50
4354;DHT22;11018;51.258;6.806;2023-04-24T07:09:11;10.40;80.30
4354;DHT22;11018;51.258;6.806;2023-04-24T07:11:38;10.60;77.40
4354;DHT22;11018;51.258;6.806;2023-04-24T07:14:06;10.70;76.60
4354;DHT22;11018;51.258;6.806;2023-04-24T07:16:31;10.70;73.20
4354;DHT22;11018;51.258;6.806;2023-04-24T07:18:57;10.80;69.80
4354;DHT22;11018;51.258;6.806;2023-04-24T07:21:22;10.80;70.60
4354;DHT22;11018;51.258;6.806;2023-04-24T07:23:48;10.60;72.40
4354;DHT22;11018;51.258;6.806;2023-04-24T07:26:14;10.50;76.30
4354;DHT22;11018;51.258;6.806;2023-04-24T07:28:40;10.40;78.70
4354;DHT22;11018;51.258;6.806;2023-04-24T07:31:06;10.40;79.30
4354;DHT22;11018;51.258;6.806;2023-04-24T07:33:32;10.30;76.10
4354;DHT22;11018;51.258;6.806;2023-04-24T07:35:58;10.20;72.40
4354;DHT22;11018;51.258;6.806;2023-04-24T07:38:24;10.00;74.20
4354;DHT22;11018;51.258;6.806;2023-04-24T07:40:51;9.90;73.50
4354;DHT22;11018;51.258;6.806;2023-04-24T07:43:17;9.70;73.30
4354;DHT22;11018;51.258;6.806;2023-04-24T07:45:43;9.60;79.20
4354;DHT22;11018;51.258;6.806;2023-04-24T07:48:09;9.50;83.50
4354;DHT22;11018;51.258;6.806;2023-04-24T07:50:34;9.40;82.30
4354;DHT22;11018;51.258;6.806;2023-04-24T07:53:01;9.30;78.90
4354;DHT22;11018;51.258;6.806;2023-04-24T07:55:27;9.20;78.20
4354;DHT22;11018;51.258;6.806;2023-04-24T07:57:53;9.10;80.30
4354;DHT22;11018;51.258;6.806;2023-04-24T08:00:18;9.20;81.70
4354;DHT22;11018;51.258;6.806;2023-04-24T08:02:45;9.10;83.70
4354;DHT22;11018;51.258;6.806;2023-04-24T08:05:10;9.10;83.30
4354;DHT22;11018;51.258;6.806;2023-04-24T08:07:36;9.20;84.40
4354;DHT22;11018;51.258;6.806;2023-04-24T08:10:02;9.30;82.80
4354;DHT22;11018;51.258;6.806;2023-04-24T08:12:30;9.20;81.80
4354;DHT22;11018;51.258;6.806;2023-04-24T08:14:56;9.20;82.10
4354;DHT22;11018;51.258;6.806;2023-04-24T08:17:22;9.20;85.50
4354;DHT22;11018;51.258;6.806;2023-04-24T08:19:47;9.30;85.20
4354;DHT22;11018;51.258;6.806;2023-04-24T08:22:14;9.30;85.20
4354;DHT22;11018;51.258;6.806;2023-04-24T08:24:40;9.30;85.50
4354;DHT22;11018;51.258;6.806;2023-04-24T08:27:06;9.30;84.70
4354;DHT22;11018;51.258;6.806;2023-04-24T08:29:32;9.30;88.50
4354;DHT22;11018;51.258;6.806;2023-04-24T08:31:57;9.40;88.40
4354;DHT22;11018;51.258;6.806;2023-04-24T08:34:23;9.40;86.40
4354;DHT22;11018;51.258;6.806;2023-04-24T08:36:49;9.50;85.60
4354;DHT22;11018;51.258;6.806;2023-04-24T08:39:14;9.60;83.50
4354;DHT22;11018;51.258;6.806;2023-04-24T08:41:42;9.60;85.50
4354;DHT22;11018;51.258;6.806;2023-04-24T08:44:12;9.70;88.70
4354;DHT22;11018;51.258;6.806;2023-04-24T08:46:40;9.70;85.20
4354;DHT22;11018;51.258;6.806;2023-04-24T08:49:06;9.80;83.10
4354;DHT22;11018;51.258;6.806;2023-04-24T08:51:31;9.90;83.50
4354;DHT22;11018;51.258;6.806;2023-04-24T08:53:57;9.90;83.60
4354;DHT22;11018;51.258;6.806;2023-04-24T08:56:23;9.90;82.10
4354;DHT22;11018;51.258;6.806;2023-04-24T08:58:51;9.80;83.40
4354;DHT22;11018;51.258;6.806;2023-04-24T09:01:20;9.70;87.50
4354;DHT22;11018;51.258;6.806;2023-04-24T09:03:51;9.60;90.80
4354;DHT22;11018;51.258;6.806;2023-04-24T09:06:19;9.50;95.90
4354;DHT22;11018;51.258;6.806;2023-04-24T09:08:47;9.50;97.90
4354;DHT22;11018;51.258;6.806;2023-04-24T09:11:14;9.40;89.30
4354;DHT22;11018;51.258;6.806;2023-04-24T09:13:40;9.30;91.90
4354;DHT22;11018;51.258;6.806;2023-04-24T09:16:06;9.40;90.00
4354;DHT22;11018;51.258;6.806;2023-04-24T09:18:32;9.40;93.30
4354;DHT22;11018;51.258;6.806;2023-04-24T09:21:02;9.40;91.10
4354;DHT22;11018;51.258;6.806;2023-04-24T09:23:30;9.40;94.60
4354;DHT22;11018;51.258;6.806;2023-04-24T09:25:56;9.40;97.60
4354;DHT22;11018;51.258;6.806;2023-04-24T09:28:38;9.40;92.70
4354;DHT22;11018;51.258;6.806;2023-04-24T09:31:11;9.40;92.00
4354;DHT22;11018;51.258;6.806;2023-04-24T09:33:37;9.30;96.00
4354;DHT22;11018;51.258;6.806;2023-04-24T09:36:03;9.40;94.40
4354;DHT22;11018;51.258;6.806;2023-04-24T09:38:33;9.30;90.10
4354;DHT22;11018;51.258;6.806;2023-04-24T09:41:01;9.40;84.60
4354;DHT22;11018;51.258;6.806;2023-04-24T09:43:28;9.40;84.90
4354;DHT22;11018;51.258;6.806;2023-04-24T09:45:57;9.50;87.40
4354;DHT22;11018;51.258;6.806;2023-04-24T09:48:33;9.50;91.30
4354;DHT22;11018;51.258;6.806;2023-04-24T09:51:01;9.60;95.20
4354;DHT22;11018;51.258;6.806;2023-04-24T09:53:27;9.50;92.30
4354;DHT22;11018;51.258;6.806;2023-04-24T09:55:53;9.60;93.70
4354;DHT22;11018;51.258;6.806;2023-04-24T09:58:25;9.70;92.30
4354;DHT22;11018;51.258;6.806;2023-04-24T10:00:54;9.80;89.10
4354;DHT22;11018;51.258;6.806;2023-04-24T10:03:20;9.90;86.00
4354;DHT22;11018;51.258;6.806;2023-04-24T10:05:46;9.90;88.50
4354;DHT22;11018;51.258;6.806;2023-04-24T10:08:12;10.00;88.30
4354;DHT22;11018;51.258;6.806;2023-04-24T10:13:07;10.20;86.50
4354;DHT22;11018;51.258;6.806;2023-04-24T10:15:34;10.30;85.60
4354;DHT22;11018;51.258;6.806;2023-04-24T10:18:00;10.20;86.10
4354;DHT22;11018;51.258;6.806;2023-04-24T10:20:28;10.10;91.10
4354;DHT22;11018;51.258;6.806;2023-04-24T10:22:58;10.00;91.90
4354;DHT22;11018;51.258;6.806;2023-04-24T10:25:26;9.90;94.20
4354;DHT22;11018;51.258;6.806;2023-04-24T10:27:53;9.90;94.00
4354;DHT22;11018;51.258;6.806;2023-04-24T10:30:22;9.80;98.20
4354;DHT22;11018;51.258;6.806;2023-04-24T10:32:48;9.80;99.90
4354;DHT22;11018;51.258;6.806;2023-04-24T10:35:14;10.00;99.90
4354;DHT22;11018;51.258;6.806;2023-04-24T10:37:47;10.10;97.40
4354;DHT22;11018;51.258;6.806;2023-04-24T10:40:18;10.20;96.10
4354;DHT22;11018;51.258;6.806;2023-04-24T10:42:49;10.00;93.00
4354;DHT22;11018;51.258;6.806;2023-04-24T10:45:23;9.70;86.70
4354;DHT22;11018;51.258;6.806;2023-04-24T10:47:59;9.20;95.40
4354;DHT22;11018;51.258;6.806;2023-04-24T10:50:27;8.80;99.90
4354;DHT22;11018;51.258;6.806;2023-04-24T10:52:53;8.80;99.90
4354;DHT22;11018;51.258;6.806;2023-04-24T10:58:09;9.00;99.90
4354;DHT22;11018;51.258;6.806;2023-04-24T11:00:39;9.20;99.90
4354;DHT22;11018;51.258;6.806;2023-04-24T11:05:55;9.40;99.90
4354;DHT22;11018;51.258;6.806;2023-04-24T11:08:29;9.70;99.90
4354;DHT22;11018;51.258;6.806;2023-04-24T11:10:57;10.20;99.90
4354;DHT22;11018;51.258;6.806;2023-04-24T11:13:24;10.70;99.90
4354;DHT22;11018;51.258;6.806;2023-04-24T11:18:39;10.70;90.80
4354;DHT22;11018;51.258;6.806;2023-04-24T11:21:17;10.50;87.00
4354;DHT22;11018;51.258;6.806;2023-04-24T11:23:43;10.20;85.00
4354;DHT22;11018;51.258;6.806;2023-04-24T11:26:17;10.10;90.80
4354;DHT22;11018;51.258;6.806;2023-04-24T11:28:47;10.00;82.50
4354;DHT22;11018;51.258;6.806;2023-04-24T11:31:39;10.10;85.50
4354;DHT22;11018;51.258;6.806;2023-04-24T11:34:11;10.20;78.00
4354;DHT22;11018;51.258;6.806;2023-04-24T11:36:37;10.60;77.30
4354;DHT22;11018;51.258;6.806;2023-04-24T11:39:03;10.80;71.30
4354;DHT22;11018;51.258;6.806;2023-04-24T11:41:29;11.20;64.20
4354;DHT22;11018;51.258;6.806;2023-04-24T11:43:56;11.40;61.30
4354;DHT22;11018;51.258;6.806;2023-04-24T11:46:22;11.60;62.80
4354;DHT22;11018;51.258;6.806;2023-04-24T11:48:47;12.10;55.40
4354;DHT22;11018;51.258;6.806;2023-04-24T11:51:14;12.40;50.60
4354;DHT22;11018;51.258;6.806;2023-04-24T11:53:40;12.30;51.90
4354;DHT22;11018;51.258;6.806;2023-04-24T11:56:05;12.10;53.30
4354;DHT22;11018;51.258;6.806;2023-04-24T11:58:38;11.90;55.30
4354;DHT22;11018;51.258;6.806;2023-04-24T12:01:04;11.60;55.60
4354;DHT22;11018;51.258;6.806;2023-04-24T12:03:31;11.30;58.10
4354;DHT22;11018;51.258;6.806;2023-04-24T12:06:10;11.20;65.40
4354;DHT22;11018;51.258;6.806;2023-04-24T12:08:36;11.00;64.60
4354;DHT22;11018;51.258;6.806;2023-04-24T12:11:03;11.00;57.20
4354;DHT22;11018;51.258;6.806;2023-04-24T12:13:29;11.00;56.10
4354;DHT22;11018;51.258;6.806;2023-04-24T12:15:54;11.20;55.80
4354;DHT22;11018;51.258;6.806;2023-04-24T12:18:24;11.70;49.80
4354;DHT22;11018;51.258;6.806;2023-04-24T12:20:51;12.10;47.50
4354;DHT22;11018;51.258;6.806;2023-04-24T12:23:16;12.20;40.60
4354;DHT22;11018;51.258;6.806;2023-04-24T12:26:00;12.00;40.90
4354;DHT22;11018;51.258;6.806;2023-04-24T12:28:34;11.80;40.90
4354;DHT22;11018;51.258;6.806;2023-04-24T12:31:00;11.70;43.90
4354;DHT22;11018;51.258;6.806;2023-04-24T12:33:26;11.80;41.40
4354;DHT22;11018;51.258;6.806;2023-04-24T12:35:52;12.00;37.60
4354;DHT22;11018;51.258;6.806;2023-04-24T12:38:26;12.30;36.00
4354;DHT22;11018;51.258;6.806;2023-04-24T12:41:05;12.60;34.30
4354;DHT22;11018;51.258;6.806;2023-04-24T12:43:31;12.80;31.00
4354;DHT22;11018;51.258;6.806;2023-04-24T12:45:57;12.90;29.70
4354;DHT22;11018;51.258;6.806;2023-04-24T12:48:27;12.80;31.60
4354;DHT22;11018;51.258;6.806;2023-04-24T12:50:53;12.90;30.40
4354;DHT22;11018;51.258;6.806;2023-04-24T12:53:19;13.00;30.60
4354;DHT22;11018;51.258;6.806;2023-04-24T12:55:44;13.40;29.20
4354;DHT22;11018;51.258;6.806;2023-04-24T12:58:10;13.60;26.00
4354;DHT22;11018;51.258;6.806;2023-04-24T13:00:36;13.70;25.60
4354;DHT22;11018;51.258;6.806;2023-04-24T13:03:02;13.90;25.20
4354;DHT22;11018;51.258;6.806;2023-04-24T13:05:28;13.80;25.30
4354;DHT22;11018;51.258;6.806;2023-04-24T13:07:54;13.70;24.20
4354;DHT22;11018;51.258;6.806;2023-04-24T13:10:19;13.60;26.50
4354;DHT22;11018;51.258;6.806;2023-04-24T13:12:45;13.50;25.70
4354;DHT22;11018;51.258;6.806;2023-04-24T13:15:11;13.50;24.10
4354;DHT22;11018;51.258;6.806;2023-04-24T13:17:37;13.70;23.40
4354;DHT22;11018;51.258;6.806;2023-04-24T13:20:03;13.80;22.90
4354;DHT22;11018;51.258;6.806;2023-04-24T13:22:29;13.80;24.00
4354;DHT22;11018;51.258;6.806;2023-04-24T13:24:54;13.50;23.40
4354;DHT22;11018;51.258;6.806;2023-04-24T13:27:21;13.50;25.00
4354;DHT22;11018;51.258;6.806;2023-04-24T13:29:47;13.50;24.00
4354;DHT22;11018;51.258;6.806;2023-04-24T13:32:12;13.60;24.80
4354;DHT22;11018;51.258;6.806;2023-04-24T13:34:38;13.60;23.80
4354;DHT22;11018;51.258;6.806;2023-04-24T13:37:04;13.70;22.90
4354;DHT22;11018;51.258;6.806;2023-04-24T13:39:30;13.50;23.60
4354;DHT22;11018;51.258;6.806;2023-04-24T13:41:56;13.50;23.20
4354;DHT22;11018;51.258;6.806;2023-04-24T13:44:22;13.70;23.60
4354;DHT22;11018;51.258;6.806;2023-04-24T13:46:51;13.40;23.00
4354;DHT22;11018;51.258;6.806;2023-04-24T13:49:18;13.20;23.30
4354;DHT22;11018;51.258;6.806;2023-04-24T13:51:44;13.30;23.00
4354;DHT22;11018;51.258;6.806;2023-04-24T13:54:11;13.20;22.90
4354;DHT22;11018;51.258;6.806;2023-04-24T13:56:36;13.10;23.00
4354;DHT22;11018;51.258;6.806;2023-04-24T13:59:02;13.20;23.40
4354;DHT22;11018;51.258;6.806;2023-04-24T14:01:28;13.20;23.00
4354;DHT22;11018;51.258;6.806;2023-04-24T14:03:55;13.30;22.70
4354;DHT22;11018;51.258;6.806;2023-04-24T14:06:21;13.20;22.70
4354;DHT22;11018;51.258;6.806;2023-04-24T14:08:47;13.20;23.30
4354;DHT22;11018;51.258;6.806;2023-04-24T14:11:13;13.10;23.70
4354;DHT22;11018;51.258;6.806;2023-04-24T14:13:40;13.20;24.10
4354;DHT22;11018;51.258;6.806;2023-04-24T14:16:06;13.30;23.10
4354;DHT22;11018;51.258;6.806;2023-04-24T14:18:32;13.20;24.30
4354;DHT22;11018;51.258;6.806;2023-04-24T14:20:57;13.40;23.20
4354;DHT22;11018;51.258;6.806;2023-04-24T14:23:23;13.70;22.10
4354;DHT22;11018;51.258;6.806;2023-04-24T14:25:49;13.60;22.40
4354;DHT22;11018;51.258;6.806;2023-04-24T14:28:21;13.70;21.40
4354;DHT22;11018;51.258;6.806;2023-04-24T14:30:47;13.50;21.40
4354;DHT22;11018;51.258;6.806;2023-04-24T14:33:13;13.40;22.50
4354;DHT22;11018;51.258;6.806;2023-04-24T14:35:40;13.70;22.70
4354;DHT22;11018;51.258;6.806;2023-04-24T14:38:07;13.90;21.50
4354;DHT22;11018;51.258;6.806;2023-04-24T14:40:34;14.00;21.30
4354;DHT22;11018;51.258;6.806;2023-04-24T14:42:59;14.40;20.00
4354;DHT22;11018;51.258;6.806;2023-04-24T14:45:31;14.40;19.40
4354;DHT22;11018;51.258;6.806;2023-04-24T14:47:57;14.20;19.40
4354;DHT22;11018;51.258;6.806;2023-04-24T14:50:23;14.20;19.80
4354;DHT22;11018;51.258;6.806;2023-04-24T14:52:53;14.30;18.80
4354;DHT22;11018;51.258;6.806;2023-04-24T14:55:18;14.60;18.30
4354;DHT22;11018;51.258;6.806;2023-04-24T14:57:44;14.70;17.40
4354;DHT22;11018;51.258;6.806;2023-04-24T15:00:10;14.10;18.90
4354;DHT22;11018;51.258;6.806;2023-04-24T15:02:36;13.90;19.00
4354;DHT22;11018;51.258;6.806;2023-04-24T15:05:08;13.70;19.60
4354;DHT22;11018;51.258;6.806;2023-04-24T15:07:34;13.70;20.10
4354;DHT22;11018;51.258;6.806;2023-04-24T15:10:01;13.80;20.20
4354;DHT22;11018;51.258;6.806;2023-04-24T15:12:27;13.90;19.40
4354;DHT22;11018;51.258;6.806;2023-04-24T15:14:54;14.10;18.80
4354;DHT22;11018;51.258;6.806;2023-04-24T15:17:19;14.60;18.90
4354;DHT22;11018;51.258;6.806;2023-04-24T15:19:45;16.20;16.10
4354;DHT22;11018;51.258;6.806;2023-04-24T15:22:10;16.90;13.80
4354;DHT22;11018;51.258;6.806;2023-04-24T15:24:36;15.90;14.80
4354;DHT22;11018;51.258;6.806;2023-04-24T15:27:02;15.40;16.30
4354;DHT22;11018;51.258;6.806;2023-04-24T15:29:29;14.60;18.80
4354;DHT22;11018;51.258;6.806;2023-04-24T15:31:54;14.20;19.40
4354;DHT22;11018;51.258;6.806;2023-04-24T15:34:20;13.90;19.40
4354;DHT22;11018;51.258;6.806;2023-04-24T15:36:46;13.70;20.90
4354;DHT22;11018;51.258;6.806;2023-04-24T15:39:11;13.50;21.80
4354;DHT22;11018;51.258;6.806;2023-04-24T15:41:37;13.60;20.90
4354;DHT22;11018;51.258;6.806;2023-04-24T15:44:03;13.70;20.30
4354;DHT22;11018;51.258;6.806;2023-04-24T15:46:28;13.00;22.80
4354;DHT22;11018;51.258;6.806;2023-04-24T15:48:54;13.20;23.90
4354;DHT22;11018;51.258;6.806;2023-04-24T15:51:20;14.70;20.30
4354;DHT22;11018;51.258;6.806;2023-04-24T15:53:46;14.90;19.60
4354;DHT22;11018;51.258;6.806;2023-04-24T15:56:11;14.60;18.70